Time;durP1;ratioP1;P1;durP2;ratioP2;P2;SDS_P1;SDS_P2;PMS_P1;PMS_P2;Temp;Humidity;BMP_temperature;BMP_pressure;BME280_temperature;BME280_humidity;BME280_pressure;Samples;Min_cycle;Max_cycle;Signal;HPM_P1;HPM_P2
2023/10/20 00:01:21;;;;;;;8.35;4.57;;;;;;;16.54;100.00;98350.00;5204912;28;20597;-81
2023/10/20 00:03:51;;;;;;;8.10;4.38;;;;;;;16.56;100.00;98349.75;5200271;28;20079;-81
2023/10/20 00:06:22;;;;;;;4.90;4.10;;;;;;;16.56;100.00;98338.91;5202452;28;20034;-81
2023/10/20 00:08:52;;;;;;;9.32;3.97;;;;;;;16.61;100.00;98328.09;5202760;28;20395;-82
2023/10/20 00:11:25;;;;;;;9.27;4.22;;;;;;;16.63;100.00;98314.31;5203575;28;20407;-81
2023/10/20 00:13:56;;;;;;;7.75;4.28;;;;;;;16.64;100.00;98302.41;5187651;28;20164;-81
2023/10/20 00:16:28;;;;;;;5.97;3.70;;;;;;;16.69;100.00;98295.09;5199899;28;20044;-81
2023/10/20 00:19:01;;;;;;;7.38;4.82;;;;;;;16.73;100.00;98296.25;5191504;28;20041;-82
2023/10/20 00:21:31;;;;;;;7.22;3.88;;;;;;;16.77;100.00;98285.69;5202923;28;20033;-81
2023/10/20 00:24:02;;;;;;;6.30;4.40;;;;;;;16.77;100.00;98275.69;5195726;28;20407;-81
2023/10/20 00:26:32;;;;;;;9.05;4.53;;;;;;;16.75;100.00;98277.81;5205038;28;20065;-81
2023/10/20 00:29:03;;;;;;;10.23;3.95;;;;;;;16.78;100.00;98280.00;5204327;28;20013;-81
2023/10/20 00:31:34;;;;;;;4.45;3.95;;;;;;;16.78;100.00;98274.59;5189067;28;20026;-81
2023/10/20 00:34:04;;;;;;;8.13;4.18;;;;;;;16.76;100.00;98256.97;5198232;28;20105;-82
2023/10/20 00:36:35;;;;;;;6.18;4.10;;;;;;;16.81;100.00;98273.22;5201213;28;20033;-81
2023/10/20 00:39:06;;;;;;;6.18;4.45;;;;;;;16.81;100.00;98270.50;5201293;28;20037;-81
2023/10/20 00:41:36;;;;;;;7.00;4.25;;;;;;;16.81;100.00;98265.09;5191741;28;20040;-84
2023/10/20 00:44:07;;;;;;;6.50;4.60;;;;;;;16.80;100.00;98269.69;5197581;28;20022;-81
2023/10/20 00:46:38;;;;;;;7.50;4.75;;;;;;;16.79;100.00;98272.69;5189002;28;20396;-81
2023/10/20 00:49:10;;;;;;;8.50;4.72;;;;;;;16.76;100.00;98265.91;5201547;28;20025;-81
2023/10/20 00:51:41;;;;;;;8.25;4.35;;;;;;;16.77;100.00;98264.03;5200207;28;20091;-82
2023/10/20 00:54:14;;;;;;;8.45;4.65;;;;;;;16.75;100.00;98264.28;5199756;28;20037;-81
2023/10/20 00:56:45;;;;;;;11.55;5.65;;;;;;;16.76;100.00;98263.19;5199847;28;20566;-81
2023/10/20 00:59:16;;;;;;;6.28;4.75;;;;;;;16.76;100.00;98246.13;5197096;28;20132;-80
2023/10/20 01:01:47;;;;;;;9.43;5.07;;;;;;;16.72;100.00;98245.88;5198596;28;20136;-81
2023/10/20 01:04:19;;;;;;;9.35;6.35;;;;;;;16.73;100.00;98242.09;5185360;28;20112;-81
2023/10/20 01:06:50;;;;;;;6.90;5.57;;;;;;;16.69;100.00;98240.16;5199047;28;20594;-82
2023/10/20 01:09:23;;;;;;;8.18;5.75;;;;;;;16.66;100.00;98236.09;5195541;28;20116;-81
2023/10/20 01:11:55;;;;;;;10.77;5.32;;;;;;;16.68;100.00;98244.75;5198411;28;20032;-81
2023/10/20 01:14:37;;;;;;;9.15;5.63;;;;;;;16.68;100.00;98247.47;5195582;28;20096;-81
2023/10/20 01:17:13;;;;;;;9.38;6.28;;;;;;;16.70;100.00;98242.59;5197873;28;20401;-81
2023/10/20 01:19:44;;;;;;;9.85;6.45;;;;;;;16.67;100.00;98243.16;5194919;28;20034;-81
2023/10/20 01:22:14;;;;;;;13.07;6.82;;;;;;;16.66;100.00;98232.56;5199443;28;20425;-80
2023/10/20 01:24:45;;;;;;;8.98;6.53;;;;;;;16.67;100.00;98229.59;5198980;28;20040;-80
2023/10/20 01:27:17;;;;;;;16.95;7.13;;;;;;;16.67;100.00;98226.09;5178757;28;20033;-81
2023/10/20 01:30:00;;;;;;;11.85;6.70;;;;;;;16.68;100.00;98227.72;5196748;28;20096;-80
2023/10/20 01:32:44;;;;;;;9.98;7.05;;;;;;;16.66;100.00;98213.63;5196402;28;20030;-80
2023/10/20 01:35:14;;;;;;;10.57;7.60;;;;;;;16.63;100.00;98217.69;5197813;28;20037;-80
2023/10/20 01:37:45;;;;;;;12.98;7.72;;;;;;;16.63;100.00;98216.88;5202869;28;20025;-81
2023/10/20 01:40:17;;;;;;;10.63;7.85;;;;;;;16.60;100.00;98204.69;5199883;28;20025;-80
2023/10/20 01:42:47;;;;;;;11.45;7.65;;;;;;;16.59;100.00;98197.66;5199572;28;20021;-81
2023/10/20 01:45:18;;;;;;;13.43;8.85;;;;;;;16.54;100.00;98189.53;5196973;28;20065;-80
2023/10/20 01:47:49;;;;;;;10.23;8.10;;;;;;;16.52;100.00;98187.09;5197189;28;20072;-80
2023/10/20 01:50:20;;;;;;;15.77;9.95;;;;;;;16.46;100.00;98192.75;5201551;28;20081;-82
2023/10/20 01:52:51;;;;;;;17.98;10.13;;;;;;;16.43;100.00;98187.91;5191678;28;20034;-81
2023/10/20 01:55:21;;;;;;;13.55;9.55;;;;;;;16.42;100.00;98183.56;5203108;28;20376;-80
2023/10/20 01:57:52;;;;;;;15.00;9.90;;;;;;;16.45;100.00;98173.00;5196968;28;21038;-81
2023/10/20 02:00:23;;;;;;;22.45;11.07;;;;;;;16.44;100.00;98163.28;5195798;28;20104;-80
2023/10/20 02:02:53;;;;;;;18.00;10.95;;;;;;;16.45;100.00;98164.09;5191226;28;20026;-81
2023/10/20 02:05:24;;;;;;;21.23;10.73;;;;;;;16.39;100.00;98157.84;5198703;28;20391;-81
2023/10/20 02:07:54;;;;;;;20.40;10.70;;;;;;;16.37;100.00;98145.69;5200371;28;20022;-80
2023/10/20 02:10:25;;;;;;;18.48;11.30;;;;;;;16.39;100.00;98141.63;5202850;28;20452;-81
2023/10/20 02:12:55;;;;;;;23.23;13.35;;;;;;;16.38;100.00;98134.59;5198076;28;20018;-81
2023/10/20 02:15:26;;;;;;;22.85;12.93;;;;;;;16.37;100.00;98130.28;5202390;28;20120;-80
2023/10/20 02:17:57;;;;;;;22.55;11.88;;;;;;;16.37;100.00;98119.44;5198406;28;20021;-81
2023/10/20 02:20:27;;;;;;;26.65;14.43;;;;;;;16.35;100.00;98127.00;5215001;28;20040;-81
2023/10/20 02:22:58;;;;;;;23.45;14.70;;;;;;;16.35;100.00;98113.47;5199296;28;20108;-81
2023/10/20 02:25:28;;;;;;;24.50;14.90;;;;;;;16.31;100.00;98099.69;5215559;28;20492;-82
2023/10/20 02:27:59;;;;;;;28.40;14.88;;;;;;;16.36;100.00;98093.44;5210333;28;20021;-81
2023/10/20 02:30:32;;;;;;;27.00;15.85;;;;;;;16.38;100.00;98085.09;5197291;28;20037;-81
2023/10/20 02:33:03;;;;;;;27.85;15.07;;;;;;;16.36;100.00;98087.22;5197505;28;20022;-81
2023/10/20 02:35:34;;;;;;;28.00;15.75;;;;;;;16.35;100.00;98080.19;5210026;28;20488;-80
2023/10/20 02:38:04;;;;;;;26.20;15.13;;;;;;;16.33;100.00;98075.06;5199271;28;20105;-81
2023/10/20 02:40:34;;;;;;;25.42;14.48;;;;;;;16.36;100.00;98073.69;5198106;28;20041;-81
2023/10/20 02:43:06;;;;;;;29.70;16.08;;;;;;;16.37;100.00;98061.81;5196120;28;20494;-81
2023/10/20 02:45:37;;;;;;;27.15;15.60;;;;;;;16.28;100.00;98051.53;5215630;28;20117;-82
2023/10/20 02:48:08;;;;;;;25.38;15.48;;;;;;;16.31;100.00;98053.72;5204839;28;20085;-81
2023/10/20 02:50:38;;;;;;;26.05;15.02;;;;;;;16.33;100.00;98058.03;5216476;28;20037;-80
2023/10/20 02:53:09;;;;;;;27.52;14.90;;;;;;;16.33;100.00;98058.03;5199838;28;20108;-80
2023/10/20 02:55:41;;;;;;;26.00;14.38;;;;;;;16.34;100.00;98055.03;5202206;28;20021;-80
2023/10/20 02:58:12;;;;;;;23.00;14.63;;;;;;;16.35;100.00;98047.75;5199748;28;20029;-80
2023/10/20 03:00:44;;;;;;;25.92;14.20;;;;;;;16.31;100.00;98052.88;5203939;28;20103;-80
2023/10/20 03:03:14;;;;;;;26.80;14.88;;;;;;;16.36;100.00;98041.25;5204039;28;20104;-80
2023/10/20 03:05:45;;;;;;;25.85;14.75;;;;;;;16.42;100.00;98030.16;5198649;28;20510;-80
2023/10/20 03:08:17;;;;;;;25.65;13.52;;;;;;;16.40;100.00;98021.50;5203776;28;20030;-80
2023/10/20 03:10:47;;;;;;;26.83;14.80;;;;;;;16.40;100.00;98007.97;5204040;28;20151;-80
2023/10/20 03:13:19;;;;;;;22.55;13.40;;;;;;;16.35;100.00;97996.34;5202199;28;20438;-80
2023/10/20 03:15:50;;;;;;;21.38;12.75;;;;;;;16.34;100.00;98002.84;5204329;28;20032;-80
2023/10/20 03:18:21;;;;;;;24.08;13.35;;;;;;;16.35;100.00;98017.97;5200269;28;20026;-80
2023/10/20 03:20:51;;;;;;;24.77;13.90;;;;;;;16.31;100.00;98006.88;5200711;28;20036;-80
2023/10/20 03:23:23;;;;;;;29.95;13.85;;;;;;;16.32;100.00;98013.94;5202570;28;20022;-81
2023/10/20 03:25:54;;;;;;;19.45;12.45;;;;;;;16.33;100.00;98007.44;5205482;28;20036;-81
2023/10/20 03:28:25;;;;;;;24.63;13.18;;;;;;;16.34;100.00;98009.06;5199391;28;20026;-80
2023/10/20 03:30:56;;;;;;;21.73;12.52;;;;;;;16.36;100.00;97996.06;5196386;28;20029;-80
2023/10/20 03:33:26;;;;;;;25.13;12.43;;;;;;;16.37;100.00;97995.00;5202968;28;20103;-81
2023/10/20 03:36:02;;;;;;;24.08;13.90;;;;;;;16.38;100.00;97993.09;5203844;28;20033;-81
2023/10/20 03:38:32;;;;;;;19.65;12.65;;;;;;;16.37;100.00;97988.78;5203014;28;20048;-81
2023/10/20 03:41:06;;;;;;;26.42;14.30;;;;;;;16.38;100.00;97984.97;5197232;28;20026;-81
2023/10/20 03:43:36;;;;;;;23.67;13.60;;;;;;;16.34;100.00;97983.91;5200736;28;20030;-81
2023/10/20 03:46:07;;;;;;;21.88;13.63;;;;;;;16.33;100.00;97971.47;5202829;28;20017;-81
2023/10/20 03:48:39;;;;;;;20.73;13.57;;;;;;;16.34;100.00;97964.97;5203713;28;20476;-80
2023/10/20 03:51:12;;;;;;;23.52;13.68;;;;;;;16.34;100.00;97957.66;5199587;28;20256;-81
2023/10/20 03:53:52;;;;;;;26.40;14.05;;;;;;;16.36;100.00;97955.47;5201812;28;20099;-80
2023/10/20 03:56:23;;;;;;;24.45;13.02;;;;;;;16.35;100.00;97953.84;5201823;28;20060;-81
2023/10/20 03:58:54;;;;;;;21.23;12.90;;;;;;;16.37;100.00;97943.59;5212667;28;20400;-81
2023/10/20 04:01:24;;;;;;;29.40;13.80;;;;;;;16.38;100.00;97939.00;5202125;28;20147;-81
2023/10/20 04:03:55;;;;;;;23.15;13.38;;;;;;;16.41;100.00;97931.09;5219125;28;20395;-81
2023/10/20 04:06:26;;;;;;;24.02;13.65;;;;;;;16.38;100.00;97925.47;5202710;28;20041;-82
2023/10/20 04:08:57;;;;;;;24.70;13.82;;;;;;;16.35;100.00;97912.47;5204430;28;20025;-81
2023/10/20 04:11:29;;;;;;;25.20;14.70;;;;;;;16.35;100.00;97915.19;5201823;28;20028;-81
2023/10/20 04:14:02;;;;;;;23.30;14.00;;;;;;;16.36;100.00;97928.41;5203590;28;22953;-82
2023/10/20 04:16:41;;;;;;;24.45;13.02;;;;;;;16.35;100.00;97926.00;5203880;28;20396;-81
2023/10/20 04:19:14;;;;;;;23.67;13.95;;;;;;;16.33;100.00;97906.53;5205647;28;20487;-81
2023/10/20 04:21:45;;;;;;;22.48;13.93;;;;;;;16.28;100.00;97899.25;5202834;28;20065;-81
2023/10/20 04:24:19;;;;;;;22.75;14.02;;;;;;;16.31;100.00;97898.69;5201054;28;20400;-81
2023/10/20 04:26:50;;;;;;;21.73;12.90;;;;;;;16.29;100.00;97893.56;5203213;28;20025;-82
2023/10/20 04:54:23;;;;;;;25.80;13.82;;;;;;;16.31;100.00;97831.88;5202601;28;20033;-82
2023/10/20 04:59:44;;;;;;;26.10;15.23;;;;;;;16.28;100.00;97818.91;5199717;28;20053;-84
2023/10/20 05:02:33;;;;;;;23.38;13.85;;;;;;;16.29;100.00;97804.28;5201701;28;20104;-82
2023/10/20 05:05:10;;;;;;;26.83;14.52;;;;;;;16.30;100.00;97805.91;5203357;28;20112;-81
2023/10/20 05:07:49;;;;;;;23.73;14.88;;;;;;;16.37;100.00;97802.91;5216653;28;20037;-81
2023/10/20 05:10:20;;;;;;;27.48;15.65;;;;;;;16.36;100.00;97803.97;5206055;28;20468;-82
2023/10/20 05:12:51;;;;;;;25.67;15.02;;;;;;;16.36;100.00;97811.28;5173562;28;20033;-82
2023/10/20 05:15:21;;;;;;;29.02;15.75;;;;;;;16.34;100.00;97816.16;5203101;28;20036;-81
2023/10/20 05:17:52;;;;;;;28.42;16.15;;;;;;;16.36;100.00;97822.09;5205807;28;20044;-83
2023/10/20 05:20:24;;;;;;;27.80;15.35;;;;;;;16.40;100.00;97812.34;5206041;28;20480;-83
2023/10/20 05:22:56;;;;;;;37.50;17.27;;;;;;;16.38;100.00;97804.53;5203835;28;20465;-81
2023/10/20 05:25:26;;;;;;;26.10;15.65;;;;;;;16.36;100.00;97797.75;5205122;28;20036;-82
2023/10/20 05:27:57;;;;;;;30.23;16.30;;;;;;;16.37;100.00;97799.41;5185865;28;20033;-84
2023/10/20 05:30:27;;;;;;;29.50;15.40;;;;;;;16.36;100.00;97786.94;5214088;28;20069;-82
2023/10/20 05:32:58;;;;;;;31.50;16.58;;;;;;;16.35;100.00;97779.91;5203356;28;20018;-81
2023/10/20 05:35:29;;;;;;;28.20;15.80;;;;;;;16.35;100.00;97791.53;5204727;28;20025;-82
2023/10/20 05:37:59;;;;;;;31.55;16.50;;;;;;;16.37;100.00;97783.16;5203691;28;20025;-82
2023/10/20 05:40:30;;;;;;;31.15;15.15;;;;;;;16.36;100.00;97786.94;5211986;28;20041;-82
2023/10/20 05:43:03;;;;;;;28.20;15.95;;;;;;;16.37;100.00;97769.66;5204018;28;20025;-81
2023/10/20 05:45:40;;;;;;;30.08;15.82;;;;;;;16.38;100.00;97757.72;5215408;28;20151;-83
2023/10/20 05:48:12;;;;;;;27.48;15.45;;;;;;;16.35;100.00;97761.78;5202398;28;20105;-83
2023/10/20 05:50:43;;;;;;;27.70;15.77;;;;;;;16.33;100.00;97758.56;5215923;28;20269;-83
2023/10/20 05:53:14;;;;;;;29.50;14.77;;;;;;;16.33;100.00;97772.09;5205289;28;20071;-83
2023/10/20 05:55:44;;;;;;;27.10;15.38;;;;;;;16.33;100.00;97779.41;5206816;28;20156;-81
2023/10/20 05:58:15;;;;;;;31.15;15.38;;;;;;;16.37;100.00;97778.56;5214443;28;20456;-84
2023/10/20 06:00:45;;;;;;;28.17;15.02;;;;;;;16.39;100.00;97762.84;5204249;28;20495;-83
2023/10/20 06:03:16;;;;;;;30.02;15.15;;;;;;;16.40;100.00;97763.66;5187363;28;20026;-83
2023/10/20 06:05:47;;;;;;;28.45;14.73;;;;;;;16.42;100.00;97758.78;5204787;28;20037;-83
2023/10/20 06:08:17;;;;;;;29.88;15.93;;;;;;;16.40;100.00;97752.84;5183085;28;20029;-83
2023/10/20 06:10:48;;;;;;;26.35;14.57;;;;;;;16.38;100.00;97753.13;5210054;28;20055;-85
2023/10/20 06:13:21;;;;;;;28.80;16.08;;;;;;;16.42;100.00;97761.50;5200279;28;20030;-83
2023/10/20 06:15:53;;;;;;;31.65;15.63;;;;;;;16.37;100.00;97764.22;5202562;28;20044;-83
2023/10/20 06:18:24;;;;;;;26.75;14.77;;;;;;;16.37;100.00;97767.75;5204102;28;20040;-83
2023/10/20 06:20:54;;;;;;;26.42;14.40;;;;;;;16.37;100.00;97759.63;5216218;28;20033;-83
2023/10/20 06:23:25;;;;;;;25.75;14.23;;;;;;;16.38;100.00;97761.25;5206835;28;20333;-83
2023/10/20 06:25:56;;;;;;;29.08;14.40;;;;;;;16.40;100.00;97755.53;5194613;28;20029;-83
2023/10/20 06:28:27;;;;;;;31.45;15.35;;;;;;;16.37;100.00;97750.72;5209428;28;20061;-83
2023/10/20 06:31:00;;;;;;;28.50;15.32;;;;;;;16.39;100.00;97759.34;5207017;28;20056;-83
2023/10/20 06:33:32;;;;;;;29.08;14.95;;;;;;;16.40;100.00;97747.41;5207921;28;20029;-81
2023/10/20 06:36:11;;;;;;;28.20;15.82;;;;;;;16.41;100.00;97746.31;5203699;28;20171;-84
2023/10/20 06:38:48;;;;;;;29.90;15.68;;;;;;;16.43;100.00;97749.59;5201427;28;20157;-82
2023/10/20 06:41:18;;;;;;;32.55;15.48;;;;;;;16.43;100.00;97755.00;5204499;28;20037;-83
2023/10/20 06:43:50;;;;;;;32.55;17.10;;;;;;;16.44;100.00;97756.59;5207310;28;20507;-83
2023/10/20 06:46:22;;;;;;;30.77;16.75;;;;;;;16.46;100.00;97755.22;5192960;28;20457;-84
2023/10/20 06:48:52;;;;;;;28.02;16.20;;;;;;;16.42;100.00;97746.06;5209191;28;20258;-84
2023/10/20 06:51:25;;;;;;;34.78;18.75;;;;;;;16.44;100.00;97743.88;5209004;28;20037;-86
2023/10/20 06:53:55;;;;;;;31.35;17.33;;;;;;;16.41;100.00;97751.75;5201953;28;20099;-83
2023/10/20 06:56:26;;;;;;;30.52;17.15;;;;;;;16.48;100.00;97747.66;5203849;28;20480;-84
2023/10/20 06:58:56;;;;;;;31.67;17.38;;;;;;;16.48;100.00;97742.25;5186437;28;20100;-85
2023/10/20 07:01:28;;;;;;;31.00;16.20;;;;;;;16.44;100.00;97738.47;5203371;28;20025;-83
2023/10/20 07:03:59;;;;;;;30.15;16.38;;;;;;;16.49;100.00;97748.47;5203535;28;20040;-84
2023/10/20 07:06:30;;;;;;;29.95;15.50;;;;;;;16.52;100.00;97751.41;5203300;28;20117;-84
2023/10/20 07:09:00;;;;;;;30.33;16.25;;;;;;;16.54;100.00;97751.13;5189032;28;20037;-81
2023/10/20 07:11:32;;;;;;;30.63;15.98;;;;;;;16.63;100.00;97754.06;5206489;28;20105;-84
2023/10/20 07:14:02;;;;;;;24.63;13.98;;;;;;;16.65;100.00;97746.47;5206168;28;20562;-88
2023/10/20 07:16:33;;;;;;;26.33;14.70;;;;;;;16.69;100.00;97734.78;5219892;28;20036;-84
2023/10/20 07:19:04;;;;;;;25.05;14.27;;;;;;;16.70;100.00;97739.13;5201326;28;20029;-84
2023/10/20 07:21:35;;;;;;;26.13;14.00;;;;;;;16.68;100.00;97735.09;5200672;28;20025;-83
2023/10/20 07:24:06;;;;;;;24.33;13.60;;;;;;;16.68;100.00;97733.19;5212824;28;20104;-86
2023/10/20 07:26:37;;;;;;;22.92;13.43;;;;;;;16.68;100.00;97727.78;5204953;28;20116;-85
2023/10/20 07:29:07;;;;;;;24.70;13.85;;;;;;;16.66;100.00;97721.81;5176585;28;20022;-85
2023/10/20 07:31:40;;;;;;;27.10;13.60;;;;;;;16.64;100.00;97715.88;5203836;28;20168;-85
2023/10/20 07:34:10;;;;;;;25.80;13.93;;;;;;;16.65;100.00;97708.56;5204812;28;20063;-85
2023/10/20 07:36:42;;;;;;;22.30;12.20;;;;;;;16.64;100.00;97701.53;5204016;28;20048;-87
2023/10/20 07:39:16;;;;;;;21.38;12.55;;;;;;;16.67;100.00;97701.81;5205679;28;20032;-85
2023/10/20 07:41:47;;;;;;;25.95;14.30;;;;;;;16.67;100.00;97699.09;5205539;28;20539;-85
2023/10/20 07:44:18;;;;;;;22.23;12.02;;;;;;;16.64;100.00;97683.41;5206570;28;20105;-84
2023/10/20 07:46:49;;;;;;;21.77;12.48;;;;;;;16.60;100.00;97700.50;5205841;28;20021;-85
2023/10/20 07:49:19;;;;;;;25.67;11.98;;;;;;;16.63;100.00;97700.75;5219101;28;20025;-85
2023/10/20 07:51:50;;;;;;;20.98;12.07;;;;;;;16.63;100.00;97710.75;5206494;28;20033;-85
2023/10/20 07:54:20;;;;;;;26.75;12.15;;;;;;;16.60;100.00;97712.13;5208021;28;20077;-84
2023/10/20 07:56:51;;;;;;;21.33;11.35;;;;;;;16.61;100.00;97716.44;5209022;28;20033;-85
2023/10/20 07:59:21;;;;;;;20.25;10.82;;;;;;;16.66;100.00;97721.00;5206765;28;20082;-84
2023/10/20 08:01:52;;;;;;;21.48;11.43;;;;;;;16.68;100.00;97714.25;5206029;28;20128;-83
2023/10/20 08:04:22;;;;;;;20.13;10.98;;;;;;;16.67;100.00;97712.63;5194656;28;20105;-83
2023/10/20 08:06:54;;;;;;;20.33;10.68;;;;;;;16.71;100.00;97729.09;5207921;28;20032;-84
2023/10/20 08:09:27;;;;;;;19.05;10.80;;;;;;;16.64;100.00;97717.78;5206297;28;20021;-83
2023/10/20 08:11:58;;;;;;;19.95;10.35;;;;;;;16.68;100.00;97716.13;5205392;28;20029;-85
2023/10/20 08:14:28;;;;;;;18.17;10.43;;;;;;;16.69;100.00;97715.03;5216362;28;20029;-85
2023/10/20 08:17:03;;;;;;;19.60;10.68;;;;;;;16.73;100.00;97711.53;5206180;28;20044;-85
2023/10/20 08:19:34;;;;;;;21.85;10.25;;;;;;;16.68;100.00;97714.25;5208231;28;20602;-83
2023/10/20 08:22:05;;;;;;;14.55;9.52;;;;;;;16.81;100.00;97708.19;5205992;28;20037;-85
2023/10/20 08:24:35;;;;;;;16.00;8.88;;;;;;;16.90;100.00;97715.72;5179251;28;20030;-84
2023/10/20 08:27:06;;;;;;;15.82;8.98;;;;;;;16.92;100.00;97710.81;5208644;28;20033;-84
2023/10/20 08:29:36;;;;;;;16.40;9.15;;;;;;;16.91;100.00;97712.72;5206768;28;20018;-85
2023/10/20 08:32:06;;;;;;;14.68;9.43;;;;;;;16.89;100.00;97709.50;5205301;28;20030;-84
2023/10/20 08:34:37;;;;;;;15.40;9.25;;;;;;;16.93;100.00;97707.84;5207381;28;20022;-84
2023/10/20 08:37:08;;;;;;;15.88;9.38;;;;;;;16.89;100.00;97711.41;5207524;28;20135;-84
2023/10/20 08:39:38;;;;;;;13.98;8.90;;;;;;;16.92;100.00;97722.47;5185153;28;20055;-83
2023/10/20 08:42:16;;;;;;;20.60;9.48;;;;;;;16.92;100.00;97718.94;5205278;28;20035;-84
2023/10/20 08:44:48;;;;;;;17.05;9.65;;;;;;;16.97;100.00;97713.50;5208626;28;20029;-84
2023/10/20 08:47:19;;;;;;;16.42;9.80;;;;;;;16.97;100.00;97716.22;5207285;28;20029;-84
2023/10/20 08:49:50;;;;;;;16.35;9.80;;;;;;;17.01;100.00;97709.13;5206411;28;20087;-84
2023/10/20 08:52:22;;;;;;;15.68;9.18;;;;;;;17.02;100.00;97708.06;5207188;28;20478;-86
2023/10/20 08:54:54;;;;;;;15.80;9.80;;;;;;;17.05;100.00;97702.84;5208760;28;20025;-85
2023/10/20 08:57:27;;;;;;;14.75;9.20;;;;;;;17.09;100.00;97698.50;5191995;28;20083;-88
2023/10/20 08:59:58;;;;;;;17.15;9.75;;;;;;;17.12;100.00;97699.84;5177638;28;20051;-84
2023/10/20 09:02:37;;;;;;;15.88;9.88;;;;;;;17.17;100.00;97691.66;5179944;28;20018;-83
2023/10/20 09:05:08;;;;;;;14.48;9.30;;;;;;;17.11;100.00;97687.38;5207501;28;20144;-84
2023/10/20 09:07:39;;;;;;;19.58;9.85;;;;;;;17.08;100.00;97688.75;5208174;28;20039;-85
2023/10/20 09:10:09;;;;;;;17.42;9.82;;;;;;;17.13;100.00;97700.66;5201199;28;20108;-83
2023/10/20 09:12:40;;;;;;;15.82;9.85;;;;;;;17.22;100.00;97699.75;5202143;28;20137;-85
2023/10/20 09:15:11;;;;;;;16.67;10.00;;;;;;;17.20;100.00;97696.50;5200100;28;20047;-85
2023/10/20 09:17:41;;;;;;;9.40;6.43;;;;;;;17.12;100.00;97691.72;5204691;28;20052;-84
2023/10/20 09:20:14;;;;;;;11.20;7.38;;;;;;;17.16;100.00;97697.34;5205852;28;20096;-83
2023/10/20 09:22:44;;;;;;;14.35;6.95;;;;;;;17.14;100.00;97691.41;5208710;28;20025;-84
2023/10/20 09:25:15;;;;;;;12.02;7.18;;;;;;;17.22;100.00;97699.75;5203383;28;20694;-85
2023/10/20 09:27:46;;;;;;;11.63;7.90;;;;;;;17.21;100.00;97694.59;5201745;28;20832;-85
2023/10/20 09:30:18;;;;;;;12.25;7.47;;;;;;;17.23;100.00;97700.53;5209038;28;20043;-85
2023/10/20 09:32:48;;;;;;;11.52;7.25;;;;;;;17.27;100.00;97694.28;5191728;28;20017;-85
2023/10/20 09:35:19;;;;;;;14.02;7.57;;;;;;;17.29;100.00;97692.06;5205912;28;20813;-86
2023/10/20 09:37:54;;;;;;;12.15;6.80;;;;;;;17.32;100.00;97694.22;5199096;28;20109;-86
2023/10/20 09:40:25;;;;;;;14.57;7.10;;;;;;;17.37;100.00;97693.38;5200139;28;20025;-86
2023/10/20 09:43:11;;;;;;;11.80;6.70;;;;;;;17.45;100.00;97698.13;5204280;28;20537;-84
2023/10/20 09:45:43;;;;;;;;;;;;;;;17.48;100.00;97692.16;5198852;28;20048;-84
2023/10/20 09:48:19;;;;;;;9.10;6.10;;;;;;;17.39;100.00;97684.94;5200100;28;19905;-84
2023/10/20 09:50:51;;;;;;;9.88;6.03;;;;;;;17.35;100.00;97690.13;5203572;28;20052;-85
2023/10/20 09:53:22;;;;;;;10.95;5.85;;;;;;;17.40;100.00;97681.13;5210078;28;20049;-84
2023/10/20 09:55:52;;;;;;;11.45;6.53;;;;;;;17.52;100.00;97682.34;5210413;28;20053;-85
2023/10/20 09:58:25;;;;;;;6.90;5.68;;;;;;;17.52;100.00;97678.81;5195548;28;20072;-87
2023/10/20 10:00:56;;;;;;;8.00;5.68;;;;;;;17.57;100.00;97673.34;5189092;28;20021;-84
2023/10/20 10:03:28;;;;;;;8.93;5.68;;;;;;;17.68;100.00;97665.91;5184492;28;20037;-84
2023/10/20 10:06:00;;;;;;;8.82;5.50;;;;;;;17.67;100.00;97667.00;5207353;28;20029;-85
2023/10/20 10:08:31;;;;;;;11.25;4.82;;;;;;;17.66;100.00;97671.59;5206555;28;20029;-85
2023/10/20 10:11:18;;;;;;;10.90;4.80;;;;;;;17.61;100.00;97669.75;5206678;28;20512;-85
2023/10/20 10:13:59;;;;;;;6.10;4.22;;;;;;;17.73;100.00;97672.13;5205417;28;20052;-85
2023/10/20 10:16:30;;;;;;;7.10;4.25;;;;;;;17.69;100.00;97675.66;5194363;28;20045;-85
2023/10/20 10:19:09;;;;;;;8.95;4.05;;;;;;;17.67;100.00;97677.84;5189010;28;20056;-85
2023/10/20 10:21:40;;;;;;;6.40;3.88;;;;;;;17.69;100.00;97681.88;5205349;28;20030;-85
2023/10/20 10:24:14;;;;;;;6.85;3.78;;;;;;;17.64;100.00;97675.72;5205312;28;20037;-85
2023/10/20 10:26:45;;;;;;;7.10;4.18;;;;;;;17.59;100.00;97682.00;5204308;28;20045;-85
2023/10/20 10:29:16;;;;;;;7.32;3.80;;;;;;;17.51;100.00;97685.34;5203100;28;20052;-85
2023/10/20 10:31:47;;;;;;;7.88;3.88;;;;;;;17.59;100.00;97687.44;5192294;28;20065;-85
2023/10/20 10:34:18;;;;;;;7.13;4.57;;;;;;;17.42;100.00;97690.59;5206210;28;20100;-85
2023/10/20 10:36:48;;;;;;;8.02;3.70;;;;;;;17.61;100.00;97687.94;5202061;28;20017;-85
2023/10/20 10:39:27;;;;;;;5.95;4.30;;;;;;;17.65;100.00;97688.16;5207351;28;20026;-85
2023/10/20 10:42:02;;;;;;;6.22;4.22;;;;;;;17.59;100.00;97680.09;5200074;28;20053;-85
2023/10/20 10:44:34;;;;;;;6.78;4.43;;;;;;;17.65;100.00;97678.13;5208403;28;20090;-85
2023/10/20 10:47:16;;;;;;;8.95;4.18;;;;;;;17.67;100.00;97678.66;5204091;28;20022;-85
2023/10/20 10:49:47;;;;;;;4.82;3.42;;;;;;;17.55;100.00;97679.06;5200319;28;20127;-85
2023/10/20 10:52:18;;;;;;;6.43;4.00;;;;;;;17.64;100.00;97673.00;5198244;28;20135;-85
2023/10/20 10:54:49;;;;;;;5.13;3.97;;;;;;;17.67;100.00;97672.41;5199111;28;20025;-85
2023/10/20 10:57:19;;;;;;;6.18;3.88;;;;;;;17.74;100.00;97671.00;5202176;28;20082;-86
2023/10/20 10:59:50;;;;;;;5.10;3.45;;;;;;;17.75;100.00;97666.41;5199869;28;20438;-86
2023/10/20 11:02:21;;;;;;;4.55;3.75;;;;;;;17.77;100.00;97672.31;5195568;28;20042;-84
2023/10/20 11:04:52;;;;;;;4.93;3.20;;;;;;;17.68;100.00;97680.28;5206004;28;20159;-83
2023/10/20 11:07:23;;;;;;;5.35;3.40;;;;;;;17.65;100.00;97683.56;5208774;28;20022;-83
2023/10/20 11:09:55;;;;;;;9.60;2.88;;;;;;;17.58;100.00;97693.94;5208086;28;20029;-84
2023/10/20 11:12:26;;;;;;;5.35;2.80;;;;;;;17.57;100.00;97682.31;5206348;28;20037;-84
2023/10/20 11:14:59;;;;;;;5.95;2.92;;;;;;;17.51;100.00;97694.28;5203471;28;20048;-82
2023/10/20 11:17:30;;;;;;;4.13;2.50;;;;;;;17.47;100.00;97689.72;5205000;28;20079;-82
2023/10/20 11:20:02;;;;;;;4.20;2.47;;;;;;;17.55;100.00;97699.94;5202024;28;20083;-83
2023/10/20 11:22:38;;;;;;;2.55;1.60;;;;;;;17.39;100.00;97691.16;5199607;28;20041;-84
2023/10/20 11:25:18;;;;;;;3.33;1.88;;;;;;;17.32;100.00;97702.34;5203126;28;20104;-83
2023/10/20 11:27:54;;;;;;;2.10;1.90;;;;;;;17.28;100.00;97682.34;5203738;28;20021;-83
2023/10/20 11:30:26;;;;;;;3.75;1.67;;;;;;;17.19;100.00;97689.47;5201777;28;20045;-85
2023/10/20 11:32:57;;;;;;;17.63;14.50;;;;;;;17.21;100.00;97684.56;5177048;28;20026;-83
2023/10/20 11:35:28;;;;;;;5.57;4.70;;;;;;;17.24;100.00;97683.19;5211033;28;20025;-83
2023/10/20 11:37:59;;;;;;;4.20;2.03;;;;;;;17.21;100.00;97689.16;5204142;28;20037;-84
2023/10/20 11:40:30;;;;;;;3.33;2.97;;;;;;;17.29;100.00;97697.50;5197700;28;20025;-83
2023/10/20 11:43:00;;;;;;;3.28;1.20;;;;;;;17.15;100.00;97695.72;5213446;28;20074;-84
2023/10/20 11:45:31;;;;;;;6.80;3.80;;;;;;;17.24;100.00;97697.53;5208825;28;20021;-84
2023/10/20 11:48:02;;;;;;;7.65;4.00;;;;;;;17.32;100.00;97686.09;5197144;28;20089;-83
2023/10/20 11:50:32;;;;;;;2.60;1.33;;;;;;;17.27;100.00;97685.31;5207673;28;20075;-85
2023/10/20 11:53:03;;;;;;;2.50;1.45;;;;;;;17.23;100.00;97681.59;5210420;28;20213;-83
2023/10/20 11:55:34;;;;;;;3.30;1.50;;;;;;;17.20;100.00;97682.13;5204735;28;20025;-83
2023/10/20 11:58:05;;;;;;;2.30;1.70;;;;;;;17.13;100.00;97687.91;5206294;28;20034;-83
2023/10/20 12:00:41;;;;;;;3.97;2.00;;;;;;;17.05;100.00;97702.84;5204887;28;20029;-83
2023/10/20 12:03:11;;;;;;;3.17;1.10;;;;;;;16.82;100.00;97707.13;5206374;28;20044;-83
2023/10/20 12:05:42;;;;;;;4.30;1.25;;;;;;;16.82;100.00;97720.66;5205549;28;20018;-83